Terminal Aerodrome Forecast
Issued by NWS

Home | Current Version | Previous Version | Graphics & Text | Print | Product List | Glossary On
Versions: 1 2 3 4 5 6 7 8 9 10 11 12 13 14 15 16 17 18 19 20 21 22 23 24 25 26 27 28 29 30 31 32 33 34 35
000
FTUS43 KLOT 291100
TAFMDW
TAF
KMDW 291136Z 2912/3012 34008KT P6SM SCT030 BKN090
     FM291300 33011KT 6SM -SHRA BR OVC020
     FM291400 33015G24KT 4SM -RASN BR OVC008
     FM291600 33019G32KT P6SM OVC010
     FM300100 33017G24KT P6SM BKN020
     FM300900 32011G18KT P6SM SCT020=

USA.gov is the U.S. government's official web portal to all federal, state and local government web resources and services.